sensor_id;sensor_type;location;lat;lon;timestamp;pressure;altitude;pressure_sealevel;temperature;humidity
48027;BME280;50714;49.208;5.364;2023-06-24T00:02:55;100307.97;;;19.01;68.06
48027;BME280;50714;49.208;5.364;2023-06-24T00:12:56;100311.44;;;18.96;68.14
48027;BME280;50714;49.208;5.364;2023-06-24T00:22:56;100315.00;;;18.97;68.46
48027;BME280;50714;49.208;5.364;2023-06-24T00:32:57;100316.78;;;18.80;68.34
48027;BME280;50714;49.208;5.364;2023-06-24T00:42:57;100317.97;;;18.60;69.08
48027;BME280;50714;49.208;5.364;2023-06-24T00:52:58;100317.13;;;18.60;68.84
48027;BME280;50714;49.208;5.364;2023-06-24T01:02:58;100309.94;;;18.47;69.54
48027;BME280;50714;49.208;5.364;2023-06-24T01:12:59;100304.09;;;18.44;69.42
48027;BME280;50714;49.208;5.364;2023-06-24T01:33:36;100314.72;;;18.10;70.50
48027;BME280;50714;49.208;5.364;2023-06-24T01:43:37;100312.91;;;18.04;70.48
48027;BME280;50714;49.208;5.364;2023-06-24T01:53:44;100311.47;;;18.01;70.57
48027;BME280;50714;49.208;5.364;2023-06-24T02:03:47;100304.47;;;17.94;71.21
48027;BME280;50714;49.208;5.364;2023-06-24T02:13:50;100301.81;;;17.87;71.22
48027;BME280;50714;49.208;5.364;2023-06-24T02:23:52;100305.00;;;17.84;71.61
48027;BME280;50714;49.208;5.364;2023-06-24T02:33:53;100296.66;;;17.79;71.51
48027;BME280;50714;49.208;5.364;2023-06-24T02:43:53;100289.88;;;17.70;71.63
48027;BME280;50714;49.208;5.364;2023-06-24T02:53:54;100308.84;;;17.65;71.55
48027;BME280;50714;49.208;5.364;2023-06-24T03:03:55;100305.53;;;17.56;72.08
48027;BME280;50714;49.208;5.364;2023-06-24T03:13:56;100308.44;;;17.43;72.37
48027;BME280;50714;49.208;5.364;2023-06-24T03:23:56;100317.16;;;17.33;72.36
48027;BME280;50714;49.208;5.364;2023-06-24T03:33:58;100319.72;;;17.28;72.33
48027;BME280;50714;49.208;5.364;2023-06-24T03:43:59;100325.06;;;17.23;72.65
48027;BME280;50714;49.208;5.364;2023-06-24T03:53:59;100321.72;;;17.21;72.83
48027;BME280;50714;49.208;5.364;2023-06-24T04:04:00;100332.97;;;17.25;72.39
48027;BME280;50714;49.208;5.364;2023-06-24T04:14:00;100337.91;;;17.16;73.17
48027;BME280;50714;49.208;5.364;2023-06-24T04:24:00;100344.44;;;17.15;73.98
48027;BME280;50714;49.208;5.364;2023-06-24T04:34:01;100344.88;;;17.12;74.25
48027;BME280;50714;49.208;5.364;2023-06-24T04:44:01;100342.09;;;17.19;74.59
48027;BME280;50714;49.208;5.364;2023-06-24T04:54:01;100341.56;;;17.28;75.32
48027;BME280;50714;49.208;5.364;2023-06-24T05:04:02;100335.88;;;17.48;76.34
48027;BME280;50714;49.208;5.364;2023-06-24T05:14:02;100339.53;;;17.79;76.07
48027;BME280;50714;49.208;5.364;2023-06-24T05:24:04;100339.16;;;18.05;75.95
48027;BME280;50714;49.208;5.364;2023-06-24T05:34:04;100337.03;;;18.37;76.29
48027;BME280;50714;49.208;5.364;2023-06-24T05:44:07;100344.06;;;18.56;76.66
48027;BME280;50714;49.208;5.364;2023-06-24T05:54:07;100339.25;;;18.82;76.91
48027;BME280;50714;49.208;5.364;2023-06-24T06:04:08;100338.91;;;19.13;76.57
48027;BME280;50714;49.208;5.364;2023-06-24T06:14:08;100331.63;;;19.30;76.46
48027;BME280;50714;49.208;5.364;2023-06-24T06:24:08;100330.31;;;19.56;76.42
48027;BME280;50714;49.208;5.364;2023-06-24T06:34:09;100340.53;;;20.01;76.35
48027;BME280;50714;49.208;5.364;2023-06-24T06:44:09;100329.94;;;20.50;75.83
48027;BME280;50714;49.208;5.364;2023-06-24T06:54:09;100334.66;;;20.88;75.53
48027;BME280;50714;49.208;5.364;2023-06-24T07:04:10;100335.28;;;21.28;75.68
48027;BME280;50714;49.208;5.364;2023-06-24T07:14:10;100330.41;;;21.74;75.20
48027;BME280;50714;49.208;5.364;2023-06-24T07:24:10;100326.25;;;22.15;72.68
48027;BME280;50714;49.208;5.364;2023-06-24T07:34:11;100331.84;;;22.57;71.28
48027;BME280;50714;49.208;5.364;2023-06-24T07:44:11;100328.63;;;22.97;69.99
48027;BME280;50714;49.208;5.364;2023-06-24T07:54:12;100331.34;;;23.39;67.57
48027;BME280;50714;49.208;5.364;2023-06-24T08:04:12;100318.91;;;23.79;65.36
48027;BME280;50714;49.208;5.364;2023-06-24T08:14:12;100313.22;;;24.21;64.26
48027;BME280;50714;49.208;5.364;2023-06-24T08:24:13;100311.88;;;24.64;61.58
48027;BME280;50714;49.208;5.364;2023-06-24T08:34:13;100309.38;;;25.13;59.55
48027;BME280;50714;49.208;5.364;2023-06-24T08:44:13;100304.81;;;25.63;58.18
48027;BME280;50714;49.208;5.364;2023-06-24T08:54:14;100306.13;;;26.25;57.00
48027;BME280;50714;49.208;5.364;2023-06-24T09:04:15;100309.69;;;27.51;55.04
48027;BME280;50714;49.208;5.364;2023-06-24T09:14:15;100300.06;;;29.81;52.68
48027;BME280;50714;49.208;5.364;2023-06-24T09:24:15;100299.19;;;33.70;46.89
48027;BME280;50714;49.208;5.364;2023-06-24T09:34:18;100282.63;;;36.00;39.29
48027;BME280;50714;49.208;5.364;2023-06-24T09:44:18;100265.50;;;36.45;39.66
48027;BME280;50714;49.208;5.364;2023-06-24T09:54:19;100261.06;;;38.36;34.08
48027;BME280;50714;49.208;5.364;2023-06-24T10:04:20;100240.59;;;36.03;36.77
48027;BME280;50714;49.208;5.364;2023-06-24T10:14:22;100249.34;;;37.80;34.88
48027;BME280;50714;49.208;5.364;2023-06-24T10:24:33;100247.44;;;39.26;27.12
48027;BME280;50714;49.208;5.364;2023-06-24T10:44:46;100224.66;;;40.54;25.36
48027;BME280;50714;49.208;5.364;2023-06-24T10:54:48;100206.75;;;40.80;27.58
48027;BME280;50714;49.208;5.364;2023-06-24T11:04:51;100201.50;;;41.30;26.30
48027;BME280;50714;49.208;5.364;2023-06-24T11:14:55;100187.84;;;42.30;25.58
48027;BME280;50714;49.208;5.364;2023-06-24T11:24:55;100179.88;;;43.17;24.47
48027;BME280;50714;49.208;5.364;2023-06-24T11:34:56;100166.09;;;43.01;23.76
48027;BME280;50714;49.208;5.364;2023-06-24T11:45:01;100164.88;;;41.59;21.94
48027;BME280;50714;49.208;5.364;2023-06-24T11:55:02;100147.03;;;40.18;23.52
48027;BME280;50714;49.208;5.364;2023-06-24T12:05:03;100135.22;;;38.51;24.04
48027;BME280;50714;49.208;5.364;2023-06-24T12:15:04;100112.19;;;35.64;24.86
48027;BME280;50714;49.208;5.364;2023-06-24T12:25:05;100108.19;;;33.85;26.74
48027;BME280;50714;49.208;5.364;2023-06-24T12:35:06;100088.38;;;32.78;27.74
48027;BME280;50714;49.208;5.364;2023-06-24T12:45:09;100075.78;;;32.08;28.96
48027;BME280;50714;49.208;5.364;2023-06-24T12:55:09;100083.19;;;31.43;29.07
48027;BME280;50714;49.208;5.364;2023-06-24T13:05:10;100067.53;;;30.99;29.33
48027;BME280;50714;49.208;5.364;2023-06-24T13:15:11;100055.06;;;30.48;29.22
48027;BME280;50714;49.208;5.364;2023-06-24T13:25:11;100046.63;;;30.23;29.11
48027;BME280;50714;49.208;5.364;2023-06-24T13:35:12;100038.31;;;30.00;29.41
48027;BME280;50714;49.208;5.364;2023-06-24T13:45:12;100028.81;;;29.79;29.23
48027;BME280;50714;49.208;5.364;2023-06-24T13:55:13;100022.47;;;29.56;28.79
48027;BME280;50714;49.208;5.364;2023-06-24T14:05:13;100009.84;;;29.36;29.21
48027;BME280;50714;49.208;5.364;2023-06-24T14:15:13;100020.53;;;29.21;29.43
48027;BME280;50714;49.208;5.364;2023-06-24T14:25:14;100009.44;;;29.07;29.30
48027;BME280;50714;49.208;5.364;2023-06-24T14:35:14;99990.34;;;28.92;29.35
48027;BME280;50714;49.208;5.364;2023-06-24T14:45:14;99988.00;;;28.85;29.64
48027;BME280;50714;49.208;5.364;2023-06-24T14:55:15;99975.97;;;28.76;29.65
48027;BME280;50714;49.208;5.364;2023-06-24T15:05:15;99973.19;;;28.62;30.35
48027;BME280;50714;49.208;5.364;2023-06-24T15:15:16;99956.25;;;28.50;30.05
48027;BME280;50714;49.208;5.364;2023-06-24T15:25:16;99950.22;;;28.34;31.23
48027;BME280;50714;49.208;5.364;2023-06-24T15:35:17;99939.94;;;28.21;31.56
48027;BME280;50714;49.208;5.364;2023-06-24T15:45:17;99930.34;;;28.13;32.28
48027;BME280;50714;49.208;5.364;2023-06-24T15:55:17;99915.88;;;28.03;32.26
48027;BME280;50714;49.208;5.364;2023-06-24T16:05:18;99898.81;;;27.96;33.25
48027;BME280;50714;49.208;5.364;2023-06-24T16:15:18;99891.84;;;27.84;32.72
48027;BME280;50714;49.208;5.364;2023-06-24T16:25:18;99881.97;;;27.78;32.93
48027;BME280;50714;49.208;5.364;2023-06-24T16:35:19;99888.72;;;27.72;33.79
48027;BME280;50714;49.208;5.364;2023-06-24T16:45:19;99888.81;;;27.67;33.31
48027;BME280;50714;49.208;5.364;2023-06-24T16:55:19;99876.22;;;27.61;33.98
48027;BME280;50714;49.208;5.364;2023-06-24T17:05:20;99871.34;;;27.53;34.19
48027;BME280;50714;49.208;5.364;2023-06-24T17:15:20;99860.13;;;27.44;34.46
48027;BME280;50714;49.208;5.364;2023-06-24T17:25:21;99857.25;;;27.36;35.08
48027;BME280;50714;49.208;5.364;2023-06-24T17:35:22;99860.19;;;27.26;34.80
48027;BME280;50714;49.208;5.364;2023-06-24T17:45:23;99862.00;;;27.16;35.33
48027;BME280;50714;49.208;5.364;2023-06-24T17:55:23;99845.59;;;27.06;36.37
48027;BME280;50714;49.208;5.364;2023-06-24T18:05:23;99848.53;;;26.96;36.43
48027;BME280;50714;49.208;5.364;2023-06-24T18:15:24;99837.59;;;26.86;36.94
48027;BME280;50714;49.208;5.364;2023-06-24T18:25:24;99839.19;;;26.73;37.10
48027;BME280;50714;49.208;5.364;2023-06-24T18:35:24;99836.59;;;26.63;38.14
48027;BME280;50714;49.208;5.364;2023-06-24T18:45:25;99823.19;;;26.52;38.59
48027;BME280;50714;49.208;5.364;2023-06-24T18:55:25;99826.72;;;26.38;39.02
48027;BME280;50714;49.208;5.364;2023-06-24T19:05:26;99812.47;;;26.26;40.25
48027;BME280;50714;49.208;5.364;2023-06-24T19:15:27;99823.53;;;26.07;41.66
48027;BME280;50714;49.208;5.364;2023-06-24T19:25:27;99812.34;;;25.75;42.52
48027;BME280;50714;49.208;5.364;2023-06-24T19:35:28;99824.09;;;25.38;43.72
48027;BME280;50714;49.208;5.364;2023-06-24T19:45:28;99822.53;;;25.03;44.99
48027;BME280;50714;49.208;5.364;2023-06-24T19:55:28;99820.94;;;24.58;45.96
48027;BME280;50714;49.208;5.364;2023-06-24T20:05:29;99823.94;;;24.17;46.98
48027;BME280;50714;49.208;5.364;2023-06-24T20:15:29;99826.06;;;23.81;48.46
48027;BME280;50714;49.208;5.364;2023-06-24T20:25:29;99824.72;;;23.68;48.62
48027;BME280;50714;49.208;5.364;2023-06-24T20:35:30;99823.69;;;23.54;48.91
48027;BME280;50714;49.208;5.364;2023-06-24T20:45:30;99826.75;;;23.32;48.77
48027;BME280;50714;49.208;5.364;2023-06-24T20:55:30;99821.28;;;23.12;49.94
48027;BME280;50714;49.208;5.364;2023-06-24T21:05:31;99810.81;;;22.99;50.91
48027;BME280;50714;49.208;5.364;2023-06-24T21:15:31;99810.28;;;22.82;51.59
48027;BME280;50714;49.208;5.364;2023-06-24T21:25:31;99814.94;;;22.56;52.47
48027;BME280;50714;49.208;5.364;2023-06-24T21:35:33;99808.06;;;22.38;53.00
48027;BME280;50714;49.208;5.364;2023-06-24T21:45:33;99809.69;;;22.19;53.41
48027;BME280;50714;49.208;5.364;2023-06-24T21:55:34;99809.59;;;21.93;53.92
48027;BME280;50714;49.208;5.364;2023-06-24T22:05:34;99790.28;;;21.78;54.35
48027;BME280;50714;49.208;5.364;2023-06-24T22:15:34;99795.22;;;21.71;55.12
48027;BME280;50714;49.208;5.364;2023-06-24T22:25:35;99784.75;;;21.68;55.52
48027;BME280;50714;49.208;5.364;2023-06-24T22:35:35;99792.97;;;21.63;55.57
48027;BME280;50714;49.208;5.364;2023-06-24T22:45:35;99791.28;;;21.52;55.80
48027;BME280;50714;49.208;5.364;2023-06-24T22:55:36;99794.25;;;21.40;55.95
48027;BME280;50714;49.208;5.364;2023-06-24T23:05:36;99792.47;;;21.19;56.70
48027;BME280;50714;49.208;5.364;2023-06-24T23:15:37;99794.56;;;21.06;57.50
48027;BME280;50714;49.208;5.364;2023-06-24T23:25:42;99792.88;;;20.95;57.71
48027;BME280;50714;49.208;5.364;2023-06-24T23:35:48;99788.34;;;20.79;59.47
48027;BME280;50714;49.208;5.364;2023-06-24T23:45:50;99776.94;;;20.60;58.86
48027;BME280;50714;49.208;5.364;2023-06-24T23:55:51;99771.34;;;20.45;59.48
